Schedule Details


Flight Number: CTN418
Departure: Cilipi (LDDU) at 15:55
Arrival: Frankfurt/main (EDDF) at 18:00
Route: AMUGO UL611 UVODI UL862 SABAD DCT PIKIT DCT SUBEN UQ162 PSA

Weather Information
LDDU 211400Z 26008KT 230V300 9999 FEW049 30/15 Q1014 BECMG 30008KT
EDDF 211350Z VRB04KT CAVOK 29/12 Q1018 NOSIG
Schedule Frequency

Route Map